• Join FlightAware (Why Join?)
  • Login
  • US Flag 
07:42PM EDT


 

Airport Tracker/Info


-or-


 

Live Flight TrackerFlight Track Log ✈ SWA385 ✈ 14-Sep-2013 ✈ KMDW - KHOU

Flight Track Log - Related Links

Times and Time Zones

All times are in EDT time to prevent confusion due to time zone crossing. See the SWA385 flight status page for this flight to view local times or setup timezone preferences in your user account.

Time Position Orientation Groundspeed Altitude Reporting Facility
EDT Latitude Longitude Course Direction KTS MPH feet Rate Location/Type
07:59PM 41.7433 -87.7972 193° South 205 236 3,400  Level Chicago Center
08:00PM 41.6856 -87.8372 207° Southwest 228 262 6,500 3,300 Climbing Chicago Center
08:01PM 41.6189 -87.8836 207° Southwest 265 305 10,200 3,060 Climbing Chicago Center
08:02PM 41.5467 -87.9331 207° Southwest 283 326 12,800 2,580 Climbing Chicago Center
08:03PM 41.4611 -87.9922 207° Southwest 331 381 15,600 2,820 Climbing Chicago Center
08:04PM 41.4865 -87.9739 193° South  Level Estimated
08:04PM 41.3706 -88.0525 207° Southwest 350 403 18,600  Level Chicago Center
08:05PM 41.2703 -88.1125 204° Southwest 373 429 20,900 2,340 Climbing Chicago Center
08:06PM 41.1733 -88.1731 205° Southwest 385 443 23,500 2,160 Climbing Chicago Center
08:07PM 41.0758 -88.2361 206° Southwest 392 451 25,400 1,920 Climbing Chicago Center
08:08PM 40.9556 -88.3181 207° Southwest 406 467 27,500 1,620 Climbing Chicago Center
08:09PM 40.8508 -88.3883 207° Southwest 419 482 28,800 1,260 Climbing Chicago Center
08:10PM 40.7431 -88.4617 207° Southwest 433 498 30,100 1,320 Climbing Chicago Center
08:11PM 40.6317 -88.5381 208° Southwest 446 513 31,600 1,020 Climbing Chicago Center
08:12PM 40.5214 -88.6103 206° Southwest 447 514 32,200 1,140 Climbing Chicago Center
08:13PM 40.4083 -88.6842 206° Southwest 446 513 34,000 1,320 Climbing Chicago Center
08:14PM 40.2978 -88.7572 207° Southwest 442 509 35,000 960 Climbing Chicago Center
08:15PM 40.1900 -88.8283 207° Southwest 435 501 36,000 480 Climbing Chicago Center
08:16PM 40.0794 -88.9017 207° Southwest 441 507 36,000  Level Chicago Center
08:17PM 39.9658 -88.9742 206° Southwest 449 517 36,000  Level Chicago Center
08:18PM 39.8744 -89.0386 208° Southwest 453 521 36,000  Level Kansas City Center
08:19PM 39.7389 -89.1258 206° Southwest 452 520 36,000  Level Kansas City Center
08:20PM 39.6281 -89.1986 207° Southwest 448 516 36,000  Level Kansas City Center
08:21PM 39.5189 -89.2697 207° Southwest 441 507 36,000  Level Kansas City Center
08:22PM 39.4169 -89.3347 206° Southwest 434 499 36,000  Level Kansas City Center
08:23PM 39.3097 -89.4028 206° Southwest 431 496 36,000  Level Kansas City Center
08:24PM 39.2025 -89.4711 206° Southwest 429 494 36,000  Level Kansas City Center
08:25PM 39.0767 -89.5531 207° Southwest 428 493 36,000  Level Kansas City Center
08:26PM 38.9681 -89.6228 207° Southwest 435 501 36,000  Level Kansas City Center
08:27PM 38.8550 -89.6933 206° Southwest 441 507 36,000  Level Kansas City Center
08:28PM 38.7419 -89.7639 206° Southwest 446 513 36,000  Level Kansas City Center
08:29PM 38.6294 -89.8342 206° Southwest 447 514 36,000  Level Kansas City Center
08:30PM 38.5153 -89.9053 206° Southwest 451 519 36,000  Level Kansas City Center
08:31PM 38.4006 -89.9772 206° Southwest 454 522 36,000  Level Kansas City Center
08:32PM 38.2858 -90.0492 206° Southwest 455 524 36,000  Level Kansas City Center
08:33PM 38.1703 -90.1214 206° Southwest 460 529 36,000  Level Kansas City Center
08:34PM 38.0556 -90.1925 206° Southwest 457 526 36,000  Level Kansas City Center
08:35PM 37.9428 -90.2619 206° Southwest 451 519 36,000  Level Kansas City Center
08:36PM 37.8317 -90.3308 206° Southwest 445 512 36,000  Level Kansas City Center
08:37PM 37.7214 -90.4011 207° Southwest 446 513 36,000  Level Kansas City Center
08:38PM 37.6131 -90.4642 205° Southwest 435 501 36,000  Level Kansas City Center
08:39PM 37.5042 -90.5336 207° Southwest 435 501 36,000  Level Kansas City Center
08:40PM 37.3936 -90.5997 205° Southwest 439 505 36,000  Level Kansas City Center
08:41PM 37.2789 -90.6692 206° Southwest 440 506 36,000  Level Kansas City Center
08:42PM 37.1450 -90.7492 205° Southwest 443 510 36,000  Level Kansas City Center
08:43PM 37.0339 -90.8153 205° Southwest 444 511 36,000  Level Kansas City Center
08:44PM 36.9222 -90.8819 206° Southwest 444 511 36,000  Level Kansas City Center
08:45PM 36.8722 -90.9172 209° Southwest 447 514 36,000  Level Memphis Center
08:46PM 36.7594 -90.9836 205° Southwest 447 514 36,000  Level Memphis Center
08:47PM 36.6444 -91.0500 205° Southwest 447 514 36,000  Level Memphis Center
08:48PM 36.5336 -91.1161 206° Southwest 447 514 36,000  Level Memphis Center
08:49PM 36.4186 -91.1847 206° Southwest 447 514 36,000  Level Memphis Center
08:50PM 36.3078 -91.2506 206° Southwest 447 514 36,000  Level Memphis Center
08:51PM 36.1903 -91.3161 204° Southwest 447 514 36,000  Level Memphis Center
08:52PM 36.0814 -91.3792 205° Southwest 447 514 36,000  Level Memphis Center
08:53PM 35.9683 -91.4444 205° Southwest 447 514 36,000  Level Memphis Center
08:54PM 35.8511 -91.5119 205° Southwest 441 507 36,000  Level Memphis Center
08:55PM 35.7378 -91.5769 205° Southwest 441 507 36,000  Level Memphis Center
08:56PM 35.6286 -91.6417 206° Southwest 446 513 36,000  Level Memphis Center
08:57PM 35.5175 -91.7039 205° Southwest 446 513 36,000  Level Memphis Center
08:58PM 35.4042 -91.7708 206° Southwest 446 513 36,000  Level Memphis Center
08:59PM 35.2908 -91.8325 204° Southwest 446 513 36,000  Level Memphis Center
09:00PM 35.1794 -91.8967 205° Southwest 446 513 36,000  Level Memphis Center
09:01PM 35.0681 -91.9606 205° Southwest 446 513 36,000  Level Memphis Center
09:02PM 34.9544 -92.0242 205° Southwest 446 513 36,000  Level Memphis Center
09:03PM 34.8389 -92.0878 204° Southwest 446 513 36,000  Level Memphis Center
09:04PM 34.7400 -92.1439 205° Southwest 446 513 36,000  Level Memphis Center
09:05PM 34.6183 -92.1919 198° South 446 513 36,000  Level Memphis Center
09:06PM 34.4928 -92.2144 188° South 453 521 36,000  Level Memphis Center
09:07PM 34.3653 -92.2367 188° South 463 533 36,000  Level Memphis Center
09:09PM 34.1556 -92.2778 189° South 466 536 36,000  Level Fort Worth Center
09:10PM 34.0269 -92.3014 189° South 465 535 36,000  Level Fort Worth Center
09:11PM 33.8722 -92.3306 189° South 466 536 36,000  Level Fort Worth Center
09:12PM 33.7436 -92.3539 189° South 466 536 36,000  Level Fort Worth Center
09:13PM 33.6167 -92.3783 189° South 461 531 36,000  Level Fort Worth Center
09:14PM 33.4881 -92.4019 189° South 462 532 36,000  Level Fort Worth Center
09:15PM 33.3592 -92.4261 189° South 464 534 36,000  Level Fort Worth Center
09:16PM 33.2292 -92.4483 188° South 466 536 36,000  Level Fort Worth Center
09:17PM 33.1000 -92.4728 189° South 466 536 36,000  Level Fort Worth Center
09:18PM 32.9711 -92.4950 188° South 464 534 36,000  Level Fort Worth Center
09:19PM 32.8428 -92.5197 189° South 464 534 36,000  Level Fort Worth Center
09:20PM 32.7139 -92.5417 188° South 466 536 36,000  Level Fort Worth Center
09:21PM 32.5847 -92.5644 188° South 466 536 36,000  Level Fort Worth Center
09:22PM 32.4558 -92.5881 189° South 466 536 36,000  Level Fort Worth Center
09:23PM 32.3092 -92.6158 189° South 466 536 36,000  Level Fort Worth Center
09:24PM 32.1803 -92.6397 189° South 469 540 36,000  Level Fort Worth Center
09:25PM 32.0514 -92.6619 188° South 470 541 36,000  Level Fort Worth Center
09:26PM 31.9186 -92.7408 207° Southwest 451 519 36,000  Level Houston Center
09:27PM 31.8347 -92.8483 227° Southwest 447 514 36,000  Level Houston Center
09:28PM 31.7522 -92.9561 228° Southwest 445 512 36,000  Level Houston Center
09:29PM 31.6675 -93.0611 227° Southwest 444 511 36,000  Level Houston Center
09:30PM 31.5844 -93.1667 227° Southwest 442 509 36,000  Level Houston Center
09:31PM 31.4881 -93.2939 228° Southwest 444 511 36,000  Level Houston Center
09:32PM 31.4072 -93.3972 228° Southwest 438 504 36,000  Level Houston Center
09:33PM 31.3231 -93.5006 226° Southwest 439 505 36,000  Level Houston Center
09:34PM 31.2381 -93.6056 227° Southwest 438 504 36,000 -60 Level Houston Center
09:35PM 31.1567 -93.7083 227° Southwest 435 501 35,900  Descending Houston Center
09:36PM 31.0772 -93.8061 227° Southwest 423 487 36,000 -300 Climbing Houston Center
09:37PM 30.9969 -93.9053 227° Southwest 409 471 35,400 -1,260 Descending Houston Center
09:38PM 30.9222 -93.9969 226° Southwest 408 470 33,500 -3,240 Descending Houston Center
09:39PM 30.8394 -94.0994 227° Southwest 437 503 28,900 -4,260 Descending Houston Center
09:40PM 30.7819 -94.1683 226° Southwest 462 532 27,000 -2,760 Descending Houston Center
09:40PM 30.7453 -94.2114 225° Southwest 450 518 26,100 -2,340 Descending Houston Center
09:40PM 30.7353 -94.2256 231° Southwest 451 519 25,800 -2,700 Descending Houston Center
09:41PM 30.6547 -94.3225 226° Southwest 435 501 23,400 -2,820 Descending Houston Center
09:42PM 30.5794 -94.4144 226° Southwest 406 467 20,200 -2,940 Descending Houston Center
09:44PM 30.5053 -94.5053 227° Southwest 393 452 17,500 -2,760 Descending Houston Center
09:45PM 30.4331 -94.6150 233° Southwest 360 414 14,400 -2,220 Descending Houston Center
09:46PM 30.3800 -94.6969 233° Southwest 358 412 13,000 -1,380 Descending Houston Center
09:46PM 30.3722 -94.7050 222° Southwest 351 404 13,000 -1,020 Level Houston Center
09:47PM 30.3194 -94.7894 234° Southwest 346 398 12,000 -1,140 Descending Houston Center
09:47PM 30.3219 -94.7883 21° North 354 407 12,000 -1,980 Level Houston Center
09:48PM 30.2608 -94.8792 232° Southwest 342 394 10,000 -960 Descending Houston Center
09:49PM 30.1986 -94.9764 233° Southwest 331 381 10,000  Level Houston Center
09:50PM 30.1508 -95.0500 233° Southwest 334 384 10,000  Level Houston Center
09:50PM 30.1536 -95.0458 52° Northeast 332 382 10,000 -120 Level Houston Center
09:51PM 30.0653 -95.1017 209° Southwest 323 372 9,900  Descending Houston Center
09:51PM 30.0747 -95.0972 22° Northeast 327 376 10,000 -1,620 Climbing Houston Center
09:52PM 29.9867 -95.1356 201° Southwest 302 348 8,300 -1,620 Descending Houston Center
09:52PM 29.9942 -95.1319 23° Northeast 313 360 8,400 -300 Climbing Houston Center
09:53PM 29.9078 -95.1692 200° South 298 343 8,000 -420 Descending Houston Center
09:53PM 29.9200 -95.1636 22° Northeast 289 333 8,000 -600 Level Houston Center
09:54PM 29.8411 -95.1967 200° South 237 273 7,400 -420 Descending Houston Center
09:54PM 29.8517 -95.1933 15° North 264 304 7,600 -1,380 Climbing Houston Center
09:55PM 29.8142 -95.2697 241° Southwest 250 288 6,000 -1,380 Descending Houston Center
09:55PM 29.8178 -95.2572 72° East 254 292 6,200 -1,140 Climbing Houston Center
09:56PM 29.8156 -95.3517 268° West 249 287 4,900 -1,140 Descending Houston Center
09:56PM 29.8136 -95.3361 98° East 250 288 5,100 -720 Climbing Houston Center
09:57PM 29.8067 -95.4153 264° West 204 235 4,200 -720 Descending Houston Center
09:57PM 29.8167 -95.4075 34° Northeast 228 262 4,400 -900 Climbing Houston Center
09:58PM 29.7628 -95.4022 175° South 183 211 3,300 -1,200 Descending Houston Center
09:59PM 29.7278 -95.3789 150° Southeast 136 157 2,100 -1,200 Descending Houston Center
09:59PM 29.7269 -95.3792 196° South 160 184 2,100 -600 Level Houston Center
10:00PM 29.6992 -95.3439 132° Southeast 124 143 1,500 -600 Descending Houston Center
10:00PM 29.7014 -95.3458 323° Northwest 153 176 1,500 -660 Level Houston Center
10:01PM 29.6828 -95.3242 135° Southeast 116 133 1,000 -600 Descending Houston Center
10:01PM 29.6786 -95.3183 129° Southeast 134 154 900 -660 Descending Houston Center
10:02PM 29.6569 -95.2936 135° Southeast 122 140 300 -600 Descending Houston Center
10:02PM 29.6556 -95.2914 126° Southeast 124 143 300 -180 Level Houston Center
10:03PM 29.6325 -95.2642 134° Southeast 123 142 100 -240 Descending Houston Center